Station: Lajamanu  

  Atmospheric Gas Attenuation - ITU Rec 676-11   ----------------- dB/100km -----------------
Date Time Temp RH % AH g/m3 Dew Point Wind Direction Speed kph Gust kph Barometer mB Rainfall Since 9am 24GHz 47GHz 76GHz 122GHz 134GHz 241GHz
08/05 05:30 14.7 55 6.92 5.8 13 17 1017.4 0 16.0 23.2 33.1 86.4 76.3 261.1
08/05 05:20 14.9 54 6.88 5.7 15 19 1017.2 0 15.9 23.1 32.8 85.8 75.6 258.7
08/05 05:10 15.1 53 6.84 5.6 13 15 1017.2 0 15.8 22.9 32.6 85.2 74.9 256.4
08/05 05:00 15.1 53 6.84 5.6 17 24 1017.4 0 15.8 23.0 32.6 85.2 74.9 256.4
08/05 04:50 15.1 54 6.97 5.9 17 20 1017.3 0 16.1 23.1 33.1 86.5 76.5 261.9
08/05 04:40 15 54 6.92 5.8 13 17 1017.3 0 16.0 23.1 32.9 86.1 76.0 260.1
08/05 04:30 14.8 56 7.09 6.1 15 20 1017.2 0 16.3 23.4 33.7 88.0 78.3 268.1
08/05 04:20 14.6 57 7.13 6.2 13 15 1017.2 0 16.4 23.5 33.9 88.6 79.0 270.5
08/05 04:10 14.5 58 7.21 6.3 15 17 1017.2 0 16.6 23.7 34.2 89.5 80.1 274.3
08/05 04:00 14.5 59 7.34 6.6 13 19 1017.1 0 16.9 23.9 34.7 90.8 81.7 280.0
08/05 03:50 14.4 59 7.29 6.5 13 15 1017.1 0 16.8 23.8 34.6 90.4 81.2 278.1
08/05 03:40 14.4 60 7.42 6.7 15 17 1017.1 0 17.0 24.0 35.1 91.8 82.8 283.9
08/05 03:30 14.5 60 7.46 6.8 15 20 1017.2 0 17.1 24.0 35.2 92.1 83.2 285.3
08/05 03:20 14.5 60 7.46 6.8 15 15 1017.2 0 17.1 24.0 35.2 92.1 83.2 285.3
08/05 03:10 14.5 60 7.46 6.8 13 17 1017.2 0 17.1 24.0 35.2 92.1 83.2 285.3
08/05 03:00 14.4 61 7.54 7 13 19 1017.4 0 17.3 24.2 35.5 93.0 84.3 289.2
08/05 02:50 14.4 61 7.54 7 13 17 1017.3 0 17.3 24.2 35.5 93.0 84.3 289.2
08/05 02:40 14.4 61 7.54 7 17 19 1017.4 0 17.3 24.2 35.5 93.0 84.3 289.2
08/05 02:30 14.5 60 7.46 6.8 13 17 1017.5 0 17.1 24.1 35.2 92.1 83.2 285.4
08/05 02:20 14.6 60 7.51 6.9 13 15 1017.5 0 17.2 24.1 35.3 92.5 83.7 287.2
08/05 02:10 14.8 59 7.47 6.9 17 19 1017.5 0 17.1 24.0 35.1 91.8 83.0 284.7
08/05 02:00 15 58 7.44 6.8 15 19 1017.6 0 17.1 23.9 34.9 91.3 82.4 282.7
08/05 01:50 15.2 57 7.4 6.7 17 20 1017.5 0 17.0 23.8 34.7 90.7 81.7 280.2
08/05 01:40 15.5 56 7.4 6.8 17 19 1017.6 0 17.0 23.7 34.5 90.4 81.4 279.2
08/05 01:30 15.7 55 7.36 6.7 17 20 1017.8 0 16.9 23.6 34.3 89.7 80.7 276.8
08/05 01:20 15.8 55 7.4 6.8 15 17 1017.7 0 16.9 23.6 34.4 90.0 81.1 278.2
08/05 01:10 15.4 56 7.36 6.7 13 13 1017.8 0 16.9 23.7 34.4 90.1 81.1 277.9
08/05 01:00 15.4 57 7.49 6.9 11 15 1018 0 17.1 23.9 34.9 91.4 82.7 283.6
08/05 00:50 15.4 57 7.49 6.9 11 13 1017.9 0 17.1 23.9 34.9 91.4 82.7 283.6
08/05 00:40 15.6 55 7.31 6.6 11 13 1018 0 16.8 23.6 34.2 89.4 80.2 275.1
08/05 00:30 15.9 54 7.31 6.6 13 17 1018.2 0 16.7 23.5 34.1 89.1 80.0 274.1
08/05 00:20 16 54 7.36 6.7 15 19 1018 0 16.8 23.5 34.2 89.4 80.5 275.9
08/05 00:10 15.7 56 7.49 7 11 13 1018 0 17.1 23.8 34.8 91.1 82.4 282.5
08/05 00:00 15.7 56 7.49 7 11 13 1018.2 0 17.1 23.8 34.8 91.1 82.4 282.6
07/05 23:50 15.9 56 7.58 7.1 9 11 1018.2 0 17.3 23.9 35.1 91.8 83.3 285.8
07/05 23:40 16.2 55 7.58 7.2 11 15 1018.2 0 17.3 23.8 34.9 91.4 83.0 284.7
07/05 23:30 16.3 55 7.63 7.3 13 15 1018.3 0 17.4 23.9 35.1 91.8 83.5 286.5
07/05 23:20 16.4 55 7.68 7.3 13 15 1018.1 0 17.5 23.9 35.2 92.2 84.0 288.3
07/05 23:10 16.5 54 7.58 7.2 9 11 1018.1 0 17.3 23.7 34.8 91.1 82.7 283.6
07/05 23:00 16.6 54 7.63 7.3 11 13 1018.1 0 17.4 23.8 34.9 91.5 83.2 285.4
07/05 22:50 16.8 53 7.58 7.2 11 13 1018.1 0 17.3 23.7 34.7 90.7 82.3 282.6
07/05 22:40 16.8 53 7.58 7.2 13 15 1018.2 0 17.3 23.7 34.7 90.7 82.3 282.6
07/05 22:30 16.9 53 7.62 7.3 11 15 1018.4 0 17.4 23.7 34.8 91.0 82.7 284.0
07/05 22:20 16.9 53 7.62 7.3 11 13 1018.3 0 17.4 23.7 34.8 91.0 82.7 284.0
07/05 22:10 17.1 52 7.57 7.2 13 15 1018.3 0 17.2 23.6 34.5 90.3 81.9 281.1
07/05 22:00 17.1 52 7.57 7.2 11 13 1018.4 0 17.2 23.6 34.5 90.3 81.9 281.1
07/05 21:50 17.1 53 7.71 7.5 9 11 1018.4 0 17.5 23.8 35.0 91.7 83.6 287.1
07/05 21:40 17.4 52 7.71 7.5 11 13 1018.5 0 17.5 23.7 34.9 91.4 83.3 286.1
07/05 21:30 17.4 52 7.71 7.5 9 13 1018.6 0 17.5 23.7 34.9 91.4 83.3 286.1
07/05 21:20 17.5 51 7.6 7.3 9 13 1018.5 0 17.3 23.5 34.5 90.2 81.9 281.1
07/05 21:10 17.4 51 7.56 7.2 9 11 1018.5 0 17.2 23.5 34.4 89.9 81.5 279.7
07/05 21:00 17.8 50 7.59 7.2 9 13 1018.5 0 17.3 23.4 34.3 89.7 81.5 279.6
07/05 20:50 18 49 7.53 7.1 9 11 1018.3 0 17.1 23.3 34.0 88.9 80.5 276.3
07/05 20:40 18.2 48 7.46 7 9 11 1018.3 0 17.0 23.1 33.7 88.0 79.5 272.7
07/05 20:30 18.3 47 7.35 6.8 9 11 1018.2 0 16.7 22.9 33.2 86.8 78.1 267.7
07/05 20:20 18.3 47 7.35 6.8 9 9 1018.1 0 16.7 22.9 33.2 86.8 78.0 267.7
07/05 20:10 18.5 46 7.28 6.7 9 9 1018 0 16.6 22.8 32.9 85.9 77.0 264.1
07/05 20:00 18.4 46 7.23 6.6 7 11 1018 0 16.5 22.7 32.7 85.6 76.5 262.3
07/05 19:50 18.9 44 7.13 6.4 7 7 1017.7 0 16.2 22.5 32.2 84.1 74.9 256.6
07/05 19:40 19.4 42 7.01 6.2 7 11 1017.6 0 16.0 22.2 31.5 82.4 73.0 250.1
07/05 19:30 19.8 41 7 6.2 11 13 1017.5 0 15.9 22.0 31.3 81.9 72.5 248.4
07/05 19:20 20.3 39 6.86 5.9 11 13 1017.3 0 15.6 21.7 30.7 80.1 70.4 241.3
07/05 19:10 20.5 38 6.76 5.7 13 15 1017.2 0 15.4 21.5 30.2 79.0 69.1 236.7
07/05 19:00 20.8 38 6.88 6 13 17 1017.1 0 15.6 21.6 30.5 79.8 70.2 240.5
07/05 18:50 21.3 37 6.9 6 13 17 1017.1 0 15.7 21.5 30.4 79.5 70.0 239.9
07/05 18:40 21.6 35 6.64 5.5 15 15 1016.8 0 15.1 21.1 29.4 76.8 66.8 228.8
07/05 18:30 22 34 6.6 5.4 13 20 1016.8 0 15.0 21.0 29.2 76.1 66.1 226.1
07/05 18:20 22.4 34 6.75 5.8 15 19 1016.5 0 15.3 21.1 29.5 77.0 67.4 230.7
07/05 18:10 22.6 33 6.63 5.5 15 19 1016.3 0 15.1 20.8 29.0 75.7 65.9 225.5
07/05 18:00 22.9 32 6.54 5.3 17 24 1016.2 0 14.9 20.7 28.6 74.7 64.7 221.3
07/05 17:50 23 32 6.58 5.4 17 20 1016.2 0 14.9 20.7 28.7 74.9 65.0 222.5
07/05 17:40 23.2 32 6.65 5.6 17 19 1016.1 0 15.1 20.7 28.9 75.4 65.6 224.6
07/05 17:30 23.5 31 6.56 5.4 17 24 1016.1 0 14.9 20.5 28.5 74.3 64.4 220.4
07/05 17:20 23.5 30 6.34 4.9 20 24 1016.1 0 14.4 20.3 27.8 72.4 62.0 212.1
07/05 17:10 23.6 30 6.38 5 17 20 1016.1 0 14.5 20.3 27.9 72.6 62.4 213.3
07/05 17:00 24 29 6.31 4.9 22 28 1016 0 14.3 20.1 27.5 71.7 61.3 209.7
07/05 16:50 24.7 29 6.56 5.5 22 26 1015.8 0 14.8 20.3 28.1 73.2 63.4 217.2
07/05 16:40 24.4 29 6.45 5.2 22 26 1015.8 0 14.6 20.2 27.8 72.5 62.5 213.9
07/05 16:30 24.8 29 6.6 5.6 19 30 1015.8 0 14.9 20.3 28.2 73.5 63.8 218.4
07/05 16:20 24.3 29 6.42 5.1 15 17 1015.7 0 14.6 20.2 27.7 72.4 62.3 213.0
07/05 16:10 24.8 29 6.6 5.6 22 28 1015.6 0 14.9 20.3 28.2 73.5 63.8 218.4
07/05 16:00 24.8 28 6.37 5.1 20 35 1015.7 0 14.4 20.0 27.4 71.5 61.4 209.9
07/05 15:50 24.9 29 6.64 5.7 22 26 1015.8 0 15.0 20.3 28.3 73.7 64.1 219.6
07/05 15:40 24.7 29 6.56 5.5 26 28 1015.8 0 14.8 20.3 28.1 73.2 63.4 217.2
07/05 15:30 24.4 31 6.9 6.2 20 28 1015.9 0 15.6 20.8 29.3 76.4 67.3 230.8
07/05 15:20 24 30 6.53 5.4 20 24 1015.9 0 14.8 20.4 28.2 73.6 63.7 217.9
07/05 15:10 24.5 30 6.71 5.8 26 30 1015.9 0 15.2 20.5 28.6 74.7 65.2 223.3
07/05 15:00 24.5 29 6.49 5.3 24 43 1015.9 0 14.7 20.2 27.9 72.8 62.9 215.1
07/05 14:50 24.7 29 6.56 5.5 22 28 1015.9 0 14.8 20.3 28.1 73.2 63.5 217.2
07/05 14:40 24.7 30 6.79 6 24 30 1015.9 0 15.3 20.6 28.8 75.2 65.9 225.8
07/05 14:30 24.6 30 6.75 5.9 24 33 1016.1 0 15.2 20.6 28.7 75.0 65.6 224.6
07/05 14:20 24.5 31 6.94 6.3 24 30 1016.3 0 15.6 20.8 29.4 76.7 67.7 232.1
07/05 14:10 25 30 6.91 6.2 24 32 1016.3 0 15.5 20.7 29.1 76.0 67.0 229.6
07/05 14:00 24.2 30 6.6 5.5 24 39 1016.6 0 14.9 20.5 28.4 74.1 64.3 220.1
07/05 13:50 24.2 31 6.82 6 24 28 1016.9 0 15.4 20.8 29.1 76.0 66.7 228.5
07/05 13:40 23.8 30 6.45 5.2 28 39 1017 0 14.6 20.4 28.1 73.2 63.0 215.6
07/05 13:30 24.3 30 6.64 5.6 26 41 1017.1 0 15.0 20.5 28.5 74.4 64.7 221.5
07/05 13:20 24 31 6.74 5.8 28 37 1017.3 0 15.2 20.7 28.9 75.5 66.0 226.1
07/05 13:10 24.2 31 6.82 6 22 26 1017.5 0 15.4 20.8 29.1 76.1 66.7 228.6
07/05 13:00 23.7 32 6.84 6 28 37 1017.8 0 15.5 20.9 29.4 76.7 67.4 230.8

Last Refresh: 08-May-2026 05:41:14

Bureau of Meteorology